createdAt,value
2024-02-13T00:01:11.453Z,17.02
2024-02-13T00:05:14.704Z,18.38
2024-02-13T00:09:25.624Z,18.63
2024-02-13T00:13:32.495Z,19.00
2024-02-13T00:17:46.268Z,16.63
2024-02-13T00:21:52.002Z,18.55
2024-02-13T00:25:56.983Z,17.13
2024-02-13T00:30:00.200Z,18.25
2024-02-13T00:34:03.112Z,22.05
2024-02-13T00:38:07.350Z,19.17
2024-02-13T00:42:11.485Z,21.83
2024-02-13T00:46:14.515Z,15.02
2024-02-13T00:50:17.676Z,14.38
2024-02-13T00:54:20.547Z,16.10
2024-02-13T00:58:24.688Z,14.27
2024-02-13T01:02:28.578Z,17.00
2024-02-13T01:06:31.392Z,19.02
2024-02-13T01:10:34.196Z,20.15
2024-02-13T01:14:40.047Z,20.77
2024-02-13T01:18:43.323Z,18.20
2024-02-13T01:22:46.173Z,20.30
2024-02-13T01:26:49.235Z,19.13
2024-02-13T01:30:53.524Z,19.98
2024-02-13T01:34:56.300Z,21.92
2024-02-13T01:39:01.158Z,21.10
2024-02-13T01:43:04.205Z,20.48
2024-02-13T01:47:09.123Z,22.80
2024-02-13T01:51:16.570Z,20.98
2024-02-13T01:55:22.165Z,24.52
2024-02-13T01:59:26.805Z,24.35
2024-02-13T02:03:34.330Z,24.20
2024-02-13T02:07:38.794Z,22.02
2024-02-13T02:11:41.694Z,24.75
2024-02-13T02:15:44.756Z,20.13
2024-02-13T02:19:52.469Z,23.50
2024-02-13T02:23:55.410Z,20.15
2024-02-13T02:27:59.566Z,23.15
2024-02-13T02:32:02.803Z,21.70
2024-02-13T02:40:50.972Z,21.70
2024-02-13T02:44:55.314Z,25.05
2024-02-13T02:48:59.571Z,23.48
2024-02-13T02:53:02.563Z,27.02
2024-02-13T02:57:05.735Z,28.20
2024-02-13T03:01:09.919Z,23.08
2024-02-13T03:05:12.842Z,21.80
2024-02-13T03:09:15.795Z,26.00
2024-02-13T03:13:18.683Z,28.60
2024-02-13T03:38:05.372Z,22.63
2024-02-13T03:42:08.988Z,22.75
2024-02-13T03:46:13.040Z,22.27
2024-02-13T03:50:18.147Z,20.48
2024-02-13T03:54:21.633Z,18.92
2024-02-13T03:58:24.431Z,21.02
2024-02-13T04:02:28.386Z,17.08
2024-02-13T04:06:34.355Z,14.45
2024-02-13T04:10:37.585Z,18.83
2024-02-13T04:14:40.456Z,16.00
2024-02-13T04:18:43.360Z,13.07
2024-02-13T04:22:47.828Z,13.32
2024-02-13T04:26:51.607Z,12.65
2024-02-13T04:30:55.052Z,17.05
2024-02-13T04:34:58.002Z,14.38
2024-02-13T04:39:02.181Z,18.50
2024-02-13T04:43:07.389Z,18.40
2024-02-13T04:47:10.198Z,16.77
2024-02-13T04:51:13.314Z,12.48
2024-02-13T04:55:17.703Z,14.50
2024-02-13T04:59:22.521Z,14.10
2024-02-13T05:03:40.549Z,14.48
2024-02-13T05:07:45.881Z,12.02
2024-02-13T05:11:50.034Z,11.93
2024-02-13T05:15:53.041Z,11.52
2024-02-13T05:19:55.876Z,12.25
2024-02-13T05:23:58.733Z,12.05
2024-02-13T05:28:02.898Z,13.60
2024-02-13T05:32:05.988Z,11.00
2024-02-13T05:36:09.893Z,13.45
2024-02-13T05:40:13.817Z,15.57
2024-02-13T05:44:20.231Z,19.10
2024-02-13T05:48:23.318Z,13.32
2024-02-13T05:52:26.283Z,15.35
2024-02-13T05:56:29.144Z,13.43
2024-02-13T06:00:40.489Z,16.42
2024-02-13T06:04:45.703Z,14.05
2024-02-13T06:08:48.822Z,12.43
2024-02-13T06:12:54.498Z,14.98
2024-02-13T06:16:59.106Z,15.85
2024-02-13T06:21:02.041Z,13.93
2024-02-13T06:25:07.016Z,15.10
2024-02-13T06:29:09.898Z,16.20
2024-02-13T06:33:14.270Z,15.80
2024-02-13T06:37:17.207Z,16.55
2024-02-13T06:41:20.019Z,18.08
2024-02-13T06:45:22.977Z,15.85
2024-02-13T06:49:30.954Z,16.38
2024-02-13T06:53:36.780Z,16.25
2024-02-13T06:57:39.728Z,15.55
2024-02-13T07:01:42.596Z,17.20
2024-02-13T07:05:46.963Z,17.10
2024-02-13T07:09:53.711Z,18.58
2024-02-13T07:13:56.864Z,17.48
2024-02-13T07:18:02.310Z,16.02
2024-02-13T07:22:09.003Z,16.08
2024-02-13T07:26:12.702Z,19.50
2024-02-13T07:30:16.617Z,21.10
2024-02-13T07:34:21.378Z,19.98
2024-02-13T07:38:25.734Z,23.27
2024-02-13T07:42:30.095Z,20.70
2024-02-13T07:46:36.040Z,21.98
2024-02-13T07:50:39.792Z,20.08
2024-02-13T07:54:44.049Z,22.25
2024-02-13T07:58:49.824Z,20.70
2024-02-13T08:02:55.450Z,21.65
2024-02-13T08:11:26.823Z,20.55
2024-02-13T08:15:30.584Z,20.30
2024-02-13T08:19:34.550Z,20.05
2024-02-13T08:23:38.430Z,18.55
2024-02-13T08:27:45.560Z,17.70
2024-02-13T08:31:51.925Z,21.88
2024-02-13T08:35:56.517Z,16.88
2024-02-13T08:39:59.760Z,17.23
2024-02-13T08:44:03.991Z,14.98
2024-02-13T08:48:07.826Z,15.77
2024-02-13T08:52:13.778Z,10.95
2024-02-13T08:56:17.113Z,11.32
2024-02-13T09:00:24.483Z,20.88
2024-02-13T09:04:29.373Z,13.63
2024-02-13T09:08:34.858Z,11.05
2024-02-13T09:12:38.031Z,10.52
2024-02-13T09:16:42.827Z,12.38
2024-02-13T09:20:45.731Z,12.93
2024-02-13T09:24:53.460Z,11.23
2024-02-13T09:41:37.797Z,7.20
2024-02-13T09:45:42.438Z,4.93
2024-02-13T09:49:48.355Z,5.28
2024-02-13T09:53:52.603Z,7.10
2024-02-13T09:57:58.470Z,5.07
2024-02-13T10:02:02.410Z,8.73
2024-02-13T10:06:05.585Z,5.05
2024-02-13T10:10:12.748Z,4.50
2024-02-13T10:14:22.520Z,8.70
2024-02-13T10:18:27.004Z,5.32
2024-02-13T10:22:29.855Z,3.80
2024-02-13T10:26:32.671Z,9.85
2024-02-13T10:30:41.423Z,8.30
2024-02-13T10:34:44.247Z,8.65
2024-02-13T10:38:50.259Z,4.93
2024-02-13T10:42:53.742Z,5.72
2024-02-13T10:47:00.806Z,7.78
2024-02-13T10:51:04.634Z,4.85
2024-02-13T10:55:11.868Z,7.63
2024-02-13T10:59:15.681Z,7.95
2024-02-13T11:03:21.871Z,8.10
2024-02-13T11:07:25.417Z,7.05
2024-02-13T11:11:29.813Z,6.40
2024-02-13T11:15:34.176Z,5.45
2024-02-13T11:19:45.640Z,5.05
2024-02-13T11:23:54.704Z,4.88
2024-02-13T11:28:07.938Z,6.35
2024-02-13T11:32:14.945Z,6.45
2024-02-13T11:36:25.914Z,6.35
2024-02-13T11:40:30.971Z,6.43
2024-02-13T11:44:38.142Z,6.80
2024-02-13T11:48:43.014Z,4.72
2024-02-13T11:52:49.213Z,4.60
2024-02-13T22:06:30.370Z,4.18
2024-02-13T22:10:33.759Z,3.13
2024-02-13T22:14:36.581Z,5.60
2024-02-13T22:18:39.884Z,3.15
2024-02-13T22:22:44.911Z,3.90
2024-02-13T22:26:47.762Z,4.82
2024-02-13T22:30:50.621Z,3.65
2024-02-13T22:34:57.885Z,4.20
2024-02-13T22:39:02.948Z,4.80
2024-02-13T22:43:06.237Z,4.45
2024-02-13T22:56:20.661Z,4.88
2024-02-13T23:00:37.892Z,3.80
2024-02-13T23:04:40.955Z,5.32
2024-02-13T23:08:46.097Z,7.78
2024-02-13T23:12:51.265Z,5.93
2024-02-13T23:16:54.266Z,5.25
2024-02-13T23:20:57.195Z,5.78
2024-02-13T23:25:01.237Z,6.80
2024-02-13T23:45:56.558Z,5.57
2024-02-13T23:49:59.435Z,5.18
2024-02-13T23:54:02.444Z,3.97
2024-02-13T23:58:05.989Z,5.45
